Time;durP1;ratioP1;P1;durP2;ratioP2;P2;SDS_P1;SDS_P2;PMS_P1;PMS_P2;Temp;Humidity;BMP_temperature;BMP_pressure;BME280_temperature;BME280_humidity;BME280_pressure;Samples;Min_cycle;Max_cycle;Signal;HPM_P1;HPM_P2
2022/10/28 00:01:10;;;;;;;;;;;;;;;-144.99;100.00;52421.59;5048196;28;20545;-71
2022/10/28 00:03:37;;;;;;;;;;;;;;;-144.99;100.00;52395.09;5067650;28;19942;-71
2022/10/28 00:06:04;;;;;;;;;;;;;;;-144.99;100.00;52419.56;5070660;28;19939;-70
2022/10/28 00:08:32;;;;;;;;;;;;;;;-144.99;100.00;52378.78;5065799;28;19947;-70
2022/10/28 00:11:02;;;;;;;;;;;;;;;-144.99;100.00;52370.63;5067420;28;19983;-70
2022/10/28 00:13:28;;;;;;;;;;;;;;;-144.99;100.00;52407.31;5065482;28;19953;-72
2022/10/28 00:15:54;;;;;;;;;;;;;;;-144.99;100.00;52364.53;5075325;28;20025;-73
2022/10/28 00:18:21;;;;;;;;;;;;;;;-144.99;100.00;52415.47;5053874;28;19943;-73
2022/10/28 00:20:47;;;;;;;;;;;;;;;-144.99;100.00;52388.97;5057740;28;20412;-71
2022/10/28 00:23:13;;;;;;;;;;;;;;;-144.99;100.00;52386.94;5054453;28;20369;-73
2022/10/28 00:25:41;;;;;;;;;;;;;;;-144.99;100.00;52425.66;5080203;28;19934;-73
2022/10/28 00:28:07;;;;;;;;;;;;;;;-144.99;100.00;52386.94;5065672;28;19963;-70
2022/10/28 00:30:34;;;;;;;;;;;;;;;-144.99;100.00;52415.47;5047976;28;19961;-70
2022/10/28 00:33:00;;;;;;;;;;;;;;;-144.99;100.00;52403.25;5046829;28;19959;-71
2022/10/28 00:35:27;;;;;;;;;;;;;;;-144.99;100.00;52378.78;5060175;28;20384;-70
2022/10/28 00:37:53;;;;;;;;;;;;;;;-144.99;100.00;52407.31;5073692;28;19951;-74
2022/10/28 00:40:20;;;;;;;;;;;;;;;-144.99;100.00;52350.25;5047641;28;20372;-72
2022/10/28 00:42:47;;;;;;;;;;;;;;;-144.99;100.00;52407.31;5046709;28;20019;-71
2022/10/28 00:45:14;;;;;;;;;;;;;;;-144.99;100.00;52399.19;5066821;28;20377;-71
2022/10/28 00:47:50;;;;;;;;;;;;;;;-144.99;100.00;52384.91;5067995;28;19951;-71
2022/10/28 00:50:22;;;;;;;;;;;;;;;-144.99;100.00;52415.47;5053072;28;20573;-71
2022/10/28 00:52:51;;;;;;;;;;;;;;;-144.99;100.00;52388.97;5044925;28;19962;-71
2022/10/28 00:55:19;;;;;;;;;;;;;;;-144.99;100.00;52395.09;5069447;28;19941;-71
2022/10/28 00:57:46;;;;;;;;;;;;;;;-144.99;100.00;52407.31;5053585;28;19969;-71
2022/10/28 01:00:14;;;;;;;;;;;;;;;-144.99;100.00;52419.56;5047879;28;19965;-71
2022/10/28 01:02:44;;;;;;;;;;;;;;;-144.99;100.00;52370.63;5053418;28;19971;-71
2022/10/28 01:05:11;;;;;;;;;;;;;;;-144.99;100.00;52407.31;5063425;28;20060;-69
2022/10/28 01:07:37;;;;;;;;;;;;;;;-144.99;100.00;52427.72;5075379;28;20442;-72
2022/10/28 01:10:04;;;;;;;;;;;;;;;-144.99;100.00;52386.94;5054697;28;19973;-70
2022/10/28 01:12:35;;;;;;;;;;;;;;;-144.99;100.00;52342.09;5046306;28;19959;-69
2022/10/28 01:15:06;;;;;;;;;;;;;;;-144.99;100.00;52395.09;5046381;28;19939;-69
2022/10/28 01:17:45;;;;;;;;;;;;;;;-144.99;100.00;52376.75;5075641;28;19935;-70
2022/10/28 01:20:26;;;;;;;;;;;;;;;-144.99;100.00;52433.81;5071468;28;19955;-71
2022/10/28 01:22:58;;;;;;;;;;;;;;;-144.99;100.00;52403.25;5065227;28;19949;-72
2022/10/28 01:25:30;;;;;;;;;;;;;;;-144.99;100.00;52382.88;5055867;28;19938;-72
2022/10/28 01:28:09;;;;;;;;;;;;;;;-144.99;100.00;52407.31;5072507;28;19945;-72
2022/10/28 01:30:42;;;;;;;;;;;;;;;-144.99;100.00;52391.03;5046858;28;20440;-73
2022/10/28 01:33:14;;;;;;;;;;;;;;;-144.99;100.00;52382.88;5045473;28;19959;-71
2022/10/28 01:35:45;;;;;;;;;;;;;;;-144.99;100.00;52435.88;5060636;28;19946;-71
2022/10/28 01:38:19;;;;;;;;;;;;;;;-144.99;100.00;52415.47;5055549;28;19925;-71
2022/10/28 01:40:47;;;;;;;;;;;;;;;-144.99;100.00;52382.88;5078303;28;19961;-71
2022/10/28 01:43:15;;;;;;;;;;;;;;;-144.99;100.00;52388.97;5082904;28;19948;-71
2022/10/28 01:45:44;;;;;;;;;;;;;;;-144.99;100.00;52407.31;5052060;28;20393;-69
2022/10/28 01:48:15;;;;;;;;;;;;;;;-144.99;100.00;52407.31;5075229;28;19947;-69
2022/10/28 01:50:45;;;;;;;;;;;;;;;-144.99;100.00;52393.06;5061859;28;20439;-68
2022/10/28 01:53:14;;;;;;;;;;;;;;;-144.99;100.00;52376.75;5070744;28;20322;-68
2022/10/28 01:55:43;;;;;;;;;;;;;;;-144.99;100.00;52395.09;5069581;28;20285;-67
2022/10/28 01:58:12;;;;;;;;;;;;;;;-144.99;100.00;52411.41;5073344;28;20338;-68
2022/10/28 02:00:39;;;;;;;;;;;;;;;-144.99;100.00;52439.94;5053300;28;20447;-74
2022/10/28 02:03:06;;;;;;;;;;;;;;;-144.99;100.00;52374.72;5054605;28;19946;-75
2022/10/28 02:05:50;;;;;;;;;;;;;;;-144.99;100.00;52382.88;5051615;28;19944;-75
2022/10/28 02:08:26;;;;;;;;;;;;;;;-144.99;100.00;52435.88;5066732;28;19967;-75
2022/10/28 02:11:00;;;;;;;;;;;;;;;-144.99;100.00;52419.56;5068651;28;19959;-73
2022/10/28 02:13:32;;;;;;;;;;;;;;;-144.99;100.00;52448.09;5055969;28;19951;-73
2022/10/28 02:16:02;;;;;;;;;;;;;;;-144.99;100.00;52431.78;5050942;28;19966;-73
2022/10/28 02:18:32;;;;;;;;;;;;;;;-144.99;100.00;52382.88;5073452;28;19928;-64
2022/10/28 02:21:01;;;;;;;;;;;;;;;-144.99;100.00;52399.19;5073815;28;20202;-63
2022/10/28 02:23:37;;;;;;;;;;;;;;;-144.99;100.00;52409.38;5047701;28;20230;-63
2022/10/28 02:26:07;;;;;;;;;;;;;;;-144.99;100.00;52423.63;5049935;28;19950;-63
2022/10/28 02:28:39;;;;;;;;;;;;;;;-144.99;100.00;52403.25;5068419;28;19935;-63
2022/10/28 02:31:08;;;;;;;;;;;;;;;-144.99;100.00;52413.44;5056818;28;20373;-63
2022/10/28 02:33:37;;;;;;;;;;;;;;;-144.99;100.00;52437.91;5048569;28;19961;-64
2022/10/28 02:36:04;;;;;;;;;;;;;;;-144.99;100.00;52407.31;5049766;28;19951;-66
2022/10/28 02:38:34;;;;;;;;;;;;;;;-144.99;100.00;52382.88;5060568;28;19935;-65
2022/10/28 02:41:02;;;;;;;;;;;;;;;-144.99;100.00;52391.03;5072684;28;19969;-63
2022/10/28 02:43:30;;;;;;;;;;;;;;;-144.99;100.00;52362.50;5049128;28;19970;-64
2022/10/28 02:45:58;;;;;;;;;;;;;;;-144.99;100.00;52427.72;5054313;28;19944;-64
2022/10/28 02:48:27;;;;;;;;;;;;;;;-144.99;100.00;52354.34;5073721;28;19949;-64
2022/10/28 02:50:55;;;;;;;;;;;;;;;-144.99;100.00;52439.94;5067200;28;20345;-74
2022/10/28 02:53:25;;;;;;;;;;;;;;;-144.99;100.00;52435.88;5078995;28;19961;-74
2022/10/28 02:55:54;;;;;;;;;;;;;;;-144.99;100.00;52415.47;5070508;28;19943;-74
2022/10/28 02:58:21;;;;;;;;;;;;;;;-144.99;100.00;52407.31;5064429;28;19940;-75
2022/10/28 03:00:48;;;;;;;;;;;;;;;-144.99;100.00;52421.59;5073460;28;20450;-75
2022/10/28 03:03:15;;;;;;;;;;;;;;;-144.99;100.00;52386.94;5078080;28;19946;-76
2022/10/28 03:05:41;;;;;;;;;;;;;;;-144.99;100.00;52415.47;5061614;28;20180;-74
2022/10/28 03:08:07;;;;;;;;;;;;;;;-144.99;100.00;52423.63;5068513;28;19939;-75
2022/10/28 03:10:34;;;;;;;;;;;;;;;-144.99;100.00;52340.06;5064637;28;19955;-74
2022/10/28 03:13:02;;;;;;;;;;;;;;;-144.99;100.00;52415.47;5071210;28;19935;-75
2022/10/28 03:15:28;;;;;;;;;;;;;;;-144.99;100.00;52452.16;5062383;28;19939;-75
2022/10/28 03:17:54;;;;;;;;;;;;;;;-144.99;100.00;52407.31;5055084;28;20293;-76
2022/10/28 03:20:21;;;;;;;;;;;;;;;-144.99;100.00;52395.09;5060359;28;19965;-74
2022/10/28 03:22:47;;;;;;;;;;;;;;;-144.99;100.00;52382.88;5066013;28;20418;-77
2022/10/28 03:25:13;;;;;;;;;;;;;;;-144.99;100.00;52423.63;5065882;28;19944;-74
2022/10/28 03:27:40;;;;;;;;;;;;;;;-144.99;100.00;52411.41;5066732;28;19935;-76
2022/10/28 03:30:09;;;;;;;;;;;;;;;-144.99;100.00;52427.72;5060786;28;20512;-77
2022/10/28 03:32:35;;;;;;;;;;;;;;;-144.99;100.00;52399.19;5078287;28;20299;-73
2022/10/28 03:35:02;;;;;;;;;;;;;;;-144.99;100.00;52399.19;5077271;28;19974;-75
2022/10/28 03:37:28;;;;;;;;;;;;;;;-144.99;100.00;52419.56;5081857;28;19942;-75
2022/10/28 03:39:54;;;;;;;;;;;;;;;-144.99;100.00;52399.19;5067394;28;20044;-75
2022/10/28 03:42:21;;;;;;;;;;;;;;;-144.99;100.00;52448.09;5082737;22;20025;-66
2022/10/28 03:44:47;;;;;;;;;;;;;;;-144.99;100.00;52419.56;5088531;28;19961;-63
2022/10/28 03:47:15;;;;;;;;;;;;;;;-144.99;100.00;52391.03;5091230;28;19954;-63
2022/10/28 03:49:41;;;;;;;;;;;;;;;-144.99;100.00;52407.31;5089525;28;19968;-63
2022/10/28 03:52:08;;;;;;;;;;;;;;;-144.99;100.00;52395.09;5077496;28;19949;-62
2022/10/28 03:54:34;;;;;;;;;;;;;;;-144.99;100.00;52448.09;5093628;28;20036;-63
2022/10/28 03:57:01;;;;;;;;;;;;;;;-144.99;100.00;52431.78;5080736;28;20359;-62
2022/10/28 03:59:27;;;;;;;;;;;;;;;-144.99;100.00;52460.31;5075277;28;19960;-63
2022/10/28 04:01:53;;;;;;;;;;;;;;;-144.99;100.00;52419.56;5078360;28;20480;-63
2022/10/28 04:04:21;;;;;;;;;;;;;;;-144.99;100.00;52382.88;5080822;28;19938;-63
2022/10/28 04:06:47;;;;;;;;;;;;;;;-144.99;100.00;52407.31;5088603;28;19956;-66
2022/10/28 04:09:14;;;;;;;;;;;;;;;-144.99;100.00;52384.91;5087161;28;20014;-67
2022/10/28 04:11:40;;;;;;;;;;;;;;;-144.99;100.00;52386.94;5087353;28;20036;-68
2022/10/28 04:14:07;;;;;;;;;;;;;;;-144.99;100.00;52421.59;5075354;28;20462;-67
2022/10/28 04:16:33;;;;;;;;;;;;;;;-144.99;100.00;52403.25;5089785;28;20029;-67
2022/10/28 04:19:00;;;;;;;;;;;;;;;-144.99;100.00;52423.63;5082185;28;19943;-70
2022/10/28 04:21:27;;;;;;;;;;;;;;;-144.99;100.00;52407.31;5079495;28;19950;-70
2022/10/28 04:23:54;;;;;;;;;;;;;;;-144.99;100.00;52395.09;5073869;28;20304;-70
2022/10/28 04:26:20;;;;;;;;;;;;;;;-144.99;100.00;52427.72;5084666;28;19993;-70
2022/10/28 04:28:47;;;;;;;;;;;;;;;-144.99;100.00;52431.78;5087423;28;19943;-70
2022/10/28 04:31:13;;;;;;;;;;;;;;;-144.99;100.00;52374.72;5089318;28;19924;-70
2022/10/28 04:33:40;;;;;;;;;;;;;;;-144.99;100.00;52439.94;5070592;28;19965;-70
2022/10/28 04:36:06;;;;;;;;;;;;;;;-144.99;100.00;52456.25;5079748;28;19972;-72
2022/10/28 04:38:34;;;;;;;;;;;;;;;-144.99;100.00;52415.47;5084751;28;20081;-70
2022/10/28 04:41:01;;;;;;;;;;;;;;;-144.99;100.00;52439.94;5081633;28;19956;-71
2022/10/28 04:43:27;;;;;;;;;;;;;;;-144.99;100.00;52407.31;5068567;28;19953;-70
2022/10/28 04:45:54;;;;;;;;;;;;;;;-144.99;100.00;52403.25;5077693;28;20166;-73
2022/10/28 04:48:20;;;;;;;;;;;;;;;-144.99;100.00;52395.09;5088184;28;19964;-72
2022/10/28 04:50:47;;;;;;;;;;;;;;;-144.99;100.00;52407.31;5077694;28;20165;-73
2022/10/28 04:53:13;;;;;;;;;;;;;;;-144.99;100.00;52425.66;5102487;28;20459;-72
2022/10/28 04:55:41;;;;;;;;;;;;;;;-144.99;100.00;52395.09;5093100;28;20401;-73
2022/10/28 04:58:09;;;;;;;;;;;;;;;-144.99;100.00;52415.47;5076367;28;19962;-66
2022/10/28 05:00:35;;;;;;;;;;;;;;;-144.99;100.00;52431.78;5079332;28;19952;-65
2022/10/28 05:03:02;;;;;;;;;;;;;;;-144.99;100.00;52427.72;5076162;28;19987;-69
2022/10/28 05:05:28;;;;;;;;;;;;;;;-144.99;100.00;52415.47;5074212;28;20393;-73
2022/10/28 05:07:55;;;;;;;;;;;;;;;-144.99;100.00;52395.09;5084339;28;19962;-70
2022/10/28 05:10:21;;;;;;;;;;;;;;;-144.99;100.00;52421.59;5093309;28;20050;-72
2022/10/28 05:12:49;;;;;;;;;;;;;;;-144.99;100.00;52413.44;5102241;28;19938;-71
2022/10/28 05:15:16;;;;;;;;;;;;;;;-144.99;100.00;52439.94;5076709;28;19934;-70
2022/10/28 05:17:43;;;;;;;;;;;;;;;-144.99;100.00;52411.41;5082346;28;20024;-67
2022/10/28 05:20:10;;;;;;;;;;;;;;;-144.99;100.00;52452.16;4371046;28;10001168;-68
2022/10/28 05:22:37;;;;;;;;;;;;;;;-144.99;100.00;52407.31;5072947;28;20019;-68
2022/10/28 05:25:03;;;;;;;;;;;;;;;-144.99;100.00;52423.63;5086250;28;20274;-69
2022/10/28 05:27:30;;;;;;;;;;;;;;;-144.99;100.00;52423.63;5080072;28;19945;-68
2022/10/28 05:29:58;;;;;;;;;;;;;;;-144.99;100.00;52419.56;5068332;28;20055;-68
2022/10/28 05:32:24;;;;;;;;;;;;;;;-144.99;100.00;52374.72;5077972;28;19938;-67
2022/10/28 05:34:50;;;;;;;;;;;;;;;-144.99;100.00;52419.56;5072188;28;20549;-68
2022/10/28 05:37:17;;;;;;;;;;;;;;;-144.99;100.00;52384.91;5079769;28;19946;-68
2022/10/28 05:39:43;;;;;;;;;;;;;;;-144.99;100.00;52460.31;5072979;28;20430;-68
2022/10/28 05:42:10;;;;;;;;;;;;;;;-144.99;100.00;52407.31;5082141;28;19958;-69
2022/10/28 05:44:36;;;;;;;;;;;;;;;-144.99;100.00;52444.03;5085735;28;19944;-68
2022/10/28 05:47:04;;;;;;;;;;;;;;;-144.99;100.00;52407.31;5083832;28;20829;-68
2022/10/28 05:49:30;;;;;;;;;;;;;;;-144.99;100.00;52427.72;5082338;28;19938;-68
2022/10/28 05:51:57;;;;;;;;;;;;;;;-144.99;100.00;52399.19;5080154;28;19980;-68
2022/10/28 05:54:23;;;;;;;;;;;;;;;-144.99;100.00;52386.94;5082725;28;19963;-67
2022/10/28 05:56:50;;;;;;;;;;;;;;;-144.99;100.00;52395.09;5070346;28;19932;-67
2022/10/28 05:59:16;;;;;;;;;;;;;;;-144.99;100.00;52409.38;5077867;28;20336;-69
2022/10/28 06:01:42;;;;;;;;;;;;;;;-144.99;100.00;52448.09;5073303;28;19957;-68
2022/10/28 06:04:10;;;;;;;;;;;;;;;-144.99;100.00;52431.78;5093955;28;20440;-70
2022/10/28 06:06:37;;;;;;;;;;;;;;;-144.99;100.00;52415.47;5085494;28;19946;-69
2022/10/28 06:09:03;;;;;;;;;;;;;;;-144.99;100.00;52435.88;5087148;28;19925;-67
2022/10/28 06:11:29;;;;;;;;;;;;;;;-144.99;100.00;52464.41;5096714;28;20027;-69
2022/10/28 06:13:56;;;;;;;;;;;;;;;-144.99;100.00;52439.94;5090631;28;19951;-68
2022/10/28 06:16:22;;;;;;;;;;;;;;;-144.99;100.00;52456.25;5091405;28;20380;-68
2022/10/28 06:18:49;;;;;;;;;;;;;;;-144.99;100.00;52423.63;5089517;28;19943;-69
2022/10/28 06:21:17;;;;;;;;;;;;;;;-144.99;100.00;52452.16;5089207;28;20450;-68
2022/10/28 06:23:43;;;;;;;;;;;;;;;-144.99;100.00;52423.63;5084038;28;20396;-68
2022/10/28 06:26:09;;;;;;;;;;;;;;;-144.99;100.00;52411.41;5086695;28;19950;-69
2022/10/28 06:28:36;;;;;;;;;;;;;;;-144.99;100.00;52411.41;5071499;28;19947;-74
2022/10/28 06:31:03;;;;;;;;;;;;;;;-144.99;100.00;52452.16;5068925;28;19966;-69
2022/10/28 06:33:29;;;;;;;;;;;;;;;-144.99;100.00;52427.72;5073132;28;19947;-68
2022/10/28 06:35:56;;;;;;;;;;;;;;;-144.99;100.00;52427.72;5087124;28;19928;-68
2022/10/28 06:38:24;;;;;;;;;;;;;;;-144.99;100.00;52427.72;5102401;28;20336;-68
2022/10/28 06:40:50;;;;;;;;;;;;;;;-144.99;100.00;52427.72;5082612;28;20120;-69
2022/10/28 06:43:17;;;;;;;;;;;;;;;-144.99;100.00;52399.19;5103786;28;20350;-68
2022/10/28 06:45:45;;;;;;;;;;;;;;;-144.99;100.00;52427.72;5083648;28;19946;-68
2022/10/28 06:48:12;;;;;;;;;;;;;;;-144.99;100.00;52386.94;5082988;28;19949;-68
2022/10/28 06:50:38;;;;;;;;;;;;;;;-144.99;100.00;52407.31;4718355;28;10000089;-68
2022/10/28 06:53:05;;;;;;;;;;;;;;;-144.99;100.00;52395.09;5089634;28;20045;-70
2022/10/28 06:55:32;;;;;;;;;;;;;;;-144.99;100.00;52403.25;5075333;28;19957;-68
2022/10/28 06:57:59;;;;;;;;;;;;;;;-144.99;100.00;52374.72;5083880;28;19934;-69
2022/10/28 07:00:26;;;;;;;;;;;;;;;-144.99;100.00;52407.31;5076856;28;19956;-68
2022/10/28 07:02:53;;;;;;;;;;;;;;;-144.99;100.00;52423.63;5071113;28;19942;-68
2022/10/28 07:05:20;;;;;;;;;;;;;;;-144.99;100.00;52386.94;5085535;28;20204;-68
2022/10/28 07:07:46;;;;;;;;;;;;;;;-144.99;100.00;52366.56;5088556;28;20033;-69
2022/10/28 07:10:13;;;;;;;;;;;;;;;-144.99;100.00;52346.19;5086119;28;20053;-68
2022/10/28 07:12:40;;;;;;;;;;;;;;;-144.99;100.00;52417.53;5067393;28;19943;-69
2022/10/28 07:15:07;;;;;;;;;;;;;;;-144.99;100.00;52415.47;5086566;28;20008;-69
2022/10/28 07:17:34;;;;;;;;;;;;;;;-144.99;100.00;52401.22;5086034;28;19948;-69
2022/10/28 07:20:00;;;;;;;;;;;;;;;-144.99;100.00;52370.63;5084117;28;19966;-69
2022/10/28 07:22:29;;;;;;;;;;;;;;;-144.99;100.00;52354.34;5077898;28;19936;-68
2022/10/28 07:24:56;;;;;;;;;;;;;;;-144.99;100.00;52366.56;5087089;28;19942;-69
2022/10/28 07:27:22;;;;;;;;;;;;;;;-144.99;100.00;52366.56;5086955;28;19944;-69
2022/10/28 07:29:50;;;;;;;;;;;;;;;-144.99;100.00;52386.94;5086078;28;20282;-68
2022/10/28 07:32:16;;;;;;;;;;;;;;;-144.99;100.00;52374.72;5064095;28;19961;-67
2022/10/28 07:34:42;;;;;;;;;;;;;;;-144.99;100.00;52378.78;5071064;28;19966;-68
2022/10/28 07:37:09;;;;;;;;;;;;;;;-144.99;100.00;52366.56;5084041;28;20403;-68
2022/10/28 07:39:37;;;;;;;;;;;;;;;-144.99;100.00;52364.53;5089620;28;19931;-68
2022/10/28 07:42:03;;;;;;;;;;;;;;;-144.99;100.00;52366.56;4999621;28;1847720;-70
2022/10/28 07:44:29;;;;;;;;;;;;;;;-144.99;99.96;52321.72;5079059;28;19959;-68
2022/10/28 07:46:57;;;;;;;;;;;;;;;-144.99;98.84;52366.56;5075433;28;19945;-68
2022/10/28 07:49:24;;;;;;;;;;;;;;;-144.99;96.94;52358.41;5092295;28;19928;-68
2022/10/28 07:51:50;;;;;;;;;;;;;;;-144.99;96.02;52342.09;5093418;28;20027;-68
2022/10/28 07:54:17;;;;;;;;;;;;;;;-144.99;94.58;52360.44;5081771;28;19947;-69
2022/10/28 07:56:43;;;;;;;;;;;;;;;-144.99;92.73;52340.06;5069650;28;19946;-68
2022/10/28 07:59:09;;;;;;;;;;;;;;;-144.99;91.04;52325.81;5085784;28;20077;-69
2022/10/28 08:01:36;;;;;;;;;;;;;;;-144.99;89.29;52297.25;5075000;28;20098;-68
2022/10/28 08:04:04;;;;;;;;;;;;;;;-144.99;86.88;52311.53;5065385;28;19932;-69
2022/10/28 08:06:30;;;;;;;;;;;;;;;-144.99;84.68;52321.72;5077915;28;20205;-69
2022/10/28 08:08:57;;;;;;;;;;;;;;;-144.99;83.20;52333.94;5086572;28;20403;-68
2022/10/28 08:11:24;;;;;;;;;;;;;;;-144.99;82.51;52285.03;5088200;28;19966;-68
2022/10/28 08:13:50;;;;;;;;;;;;;;;-144.99;81.47;52325.81;5081010;28;19946;-70
2022/10/28 08:16:17;;;;;;;;;;;;;;;-144.99;81.01;52307.47;5091152;28;19958;-68
2022/10/28 08:18:44;;;;;;;;;;;;;;;-144.99;79.31;52317.66;5085073;28;19962;-69
2022/10/28 08:21:13;;;;;;;;;;;;;;;-144.99;78.95;52299.31;5085060;28;19959;-68
2022/10/28 08:23:40;;;;;;;;;;;;;;;-144.99;78.46;52313.56;5090943;28;20370;-69
2022/10/28 08:26:06;;;;;;;;;;;;;;;-144.99;77.93;52291.16;5072033;28;19947;-69
2022/10/28 08:28:33;;;;;;;;;;;;;;;-144.99;77.43;52323.75;5075064;28;20033;-69
2022/10/28 08:31:01;;;;;;;;;;;;;;;-144.99;78.10;52311.53;5085020;28;20769;-68
2022/10/28 08:33:27;;;;;;;;;;;;;;;-144.99;77.45;52276.88;5063555;28;19942;-70
2022/10/28 08:35:54;;;;;;;;;;;;;;;-144.99;75.56;52317.66;5064259;28;20433;-69
2022/10/28 08:38:21;;;;;;;;;;;;;;;-144.99;74.81;52289.13;5063925;28;19943;-70
2022/10/28 08:40:54;;;;;;;;;;;;;;;-144.99;72.21;52313.56;5090308;28;20423;-71
2022/10/28 08:43:26;;;;;;;;;;;;;;;-144.99;72.41;52317.66;5104812;28;20046;-71
2022/10/28 08:45:56;;;;;;;;;;;;;;;-144.99;70.64;52285.03;5072185;28;20393;-69
2022/10/28 08:48:28;;;;;;;;;;;;;;;-144.99;69.19;52297.25;5080253;28;19947;-69
2022/10/28 08:50:58;;;;;;;;;;;;;;;-144.99;68.32;52289.13;5094271;28;19959;-70
2022/10/28 08:53:29;;;;;;;;;;;;;;;-144.99;67.80;52285.03;5076484;28;19987;-69
2022/10/28 08:55:58;;;;;;;;;;;;;;;-144.99;67.07;52295.22;5066259;28;19960;-69
2022/10/28 08:58:26;;;;;;;;;;;;;;;-144.99;66.54;52313.56;5066266;28;19952;-69
2022/10/28 09:00:54;;;;;;;;;;;;;;;-144.99;67.12;52285.03;5091833;28;19956;-70
2022/10/28 09:03:22;;;;;;;;;;;;;;;-144.99;66.48;52321.72;5084342;28;20314;-69
2022/10/28 09:05:51;;;;;;;;;;;;;;;-144.99;65.03;52301.34;5080220;28;19962;-69
2022/10/28 09:08:20;;;;;;;;;;;;;;;-144.99;63.71;52287.06;5086197;28;19946;-69
2022/10/28 09:10:59;;;;;;;;;;;;;;;-144.99;63.66;52280.97;5083309;28;20002;-70
2022/10/28 09:13:31;;;;;;;;;;;;;;;-144.99;61.70;52325.81;5085919;28;20016;-69
2022/10/28 09:16:06;;;;;;;;;;;;;;;-144.99;61.79;52268.72;5081603;28;19977;-70
2022/10/28 09:18:40;;;;;;;;;;;;;;;-144.99;62.02;52285.03;5070764;28;20029;-70
2022/10/28 09:21:13;;;;;;;;;;;;;;;-144.99;60.82;52268.72;5082089;28;19973;-69
2022/10/28 09:23:44;;;;;;;;;;;;;;;-144.99;60.03;52297.25;5096717;28;20515;-69
2022/10/28 09:26:19;;;;;;;;;;;;;;;-144.99;59.67;52252.44;5081537;28;20016;-69
2022/10/28 09:28:50;;;;;;;;;;;;;;;-144.99;58.20;52285.03;5082105;28;20037;-69
2022/10/28 09:31:20;;;;;;;;;;;;;;;-144.99;56.56;52236.13;5078305;28;19963;-69
2022/10/28 09:33:56;;;;;;;;;;;;;;;-144.99;55.74;52244.28;5096084;28;20426;-70
2022/10/28 09:36:24;;;;;;;;;;;;;;;-144.99;55.69;52223.88;5089934;28;20020;-69
2022/10/28 09:38:52;;;;;;;;;;;;;;;-144.99;54.28;52236.13;5083614;28;19954;-69
2022/10/28 09:41:21;;;;;;;;;;;;;;;-144.99;53.20;52221.84;5103300;28;19955;-69
2022/10/28 09:43:50;;;;;;;;;;;;;;;-144.99;53.42;52227.97;5089597;22;20286;-80
2022/10/28 09:46:17;;;;;;;;;;;;;;;-144.99;52.79;52234.09;5069524;28;19928;-81
2022/10/28 09:48:45;;;;;;;;;;;;;;;-144.99;51.14;52232.03;5069335;28;19925;-82
2022/10/28 09:51:18;;;;;;;;;;;;;;;-144.99;50.48;52209.63;5072211;28;19928;-80
2022/10/28 09:53:47;;;;;;;;;;;;;;;-144.99;49.05;52227.97;5061642;28;19973;-81
2022/10/28 09:56:14;;;;;;;;;;;;;;;-144.99;48.71;52170.91;5052373;28;20045;-81
2022/10/28 09:58:45;;;;;;;;;;;;;;;-144.99;47.84;52179.06;5052673;28;19949;-80
2022/10/28 10:01:11;;;;;;;;;;;;;;;-144.99;47.17;52130.13;5053356;28;20457;-80
2022/10/28 10:03:38;;;;;;;;;;;;;;;-144.99;46.16;52146.44;5059164;28;19958;-81
2022/10/28 10:06:11;;;;;;;;;;;;;;;-144.99;45.69;52111.78;5048592;28;20258;-77
2022/10/28 10:08:39;;;;;;;;;;;;;;;-144.99;44.57;52079.19;5058268;28;20417;-80
2022/10/28 10:11:07;;;;;;;;;;;;;;;-144.99;44.60;52093.44;5060342;28;20018;-79
2022/10/28 10:13:34;;;;;;;;;;;;;;;-144.99;44.35;52093.44;5054169;28;20495;-80
2022/10/28 10:16:06;;;;;;;;;;;;;;;-144.99;43.68;52109.75;5050287;28;20348;-79
2022/10/28 10:18:32;;;;;;;;;;;;;;;-144.99;43.93;52134.22;5046088;28;19949;-80
2022/10/28 10:20:59;;;;;;;;;;;;;;;-144.99;44.59;52134.22;5058782;28;19939;-74
2022/10/28 10:23:30;;;;;;;;;;;;;;;-144.99;44.74;52140.31;5048187;28;19925;-81
2022/10/28 10:26:01;;;;;;;;;;;;;;;-144.99;43.98;52093.44;5044662;28;19945;-77
2022/10/28 10:28:28;;;;;;;;;;;;;;;-144.99;43.53;52083.25;5042389;28;19953;-76
2022/10/28 10:30:56;;;;;;;;;;;;;;;-144.99;43.44;52044.53;5057156;28;19987;-78
2022/10/28 10:33:25;;;;;;;;;;;;;;;-144.99;42.59;52050.66;5048528;28;19955;-76
2022/10/28 10:35:56;;;;;;;;;;;;;;;-144.99;41.33;52048.63;5050601;28;20496;-76
2022/10/28 10:38:23;;;;;;;;;;;;;;;-144.99;41.62;52024.16;5046798;28;19943;-76
2022/10/28 10:40:50;;;;;;;;;;;;;;;-144.99;41.48;52044.53;5049501;28;20395;-81
2022/10/28 10:43:22;;;;;;;;;;;;;;;-144.99;41.25;52036.38;5049467;28;19954;-75
2022/10/28 10:45:59;;;;;;;;;;;;;;;-144.99;40.90;52077.16;5067879;28;20019;-80
2022/10/28 10:48:27;;;;;;;;;;;;;;;-144.99;41.71;52091.41;5071283;28;19954;-77
2022/10/28 10:50:54;;;;;;;;;;;;;;;-144.99;41.69;52073.06;5062907;28;19947;-78
2022/10/28 10:53:22;;;;;;;;;;;;;;;-144.99;41.55;52077.16;5067379;28;19964;-77
2022/10/28 10:55:50;;;;;;;;;;;;;;;-144.99;41.77;52079.19;5061923;28;19961;-80
2022/10/28 10:58:18;;;;;;;;;;;;;;;-144.99;41.60;52062.88;5070816;28;20000;-81
2022/10/28 11:00:46;;;;;;;;;;;;;;;-144.99;41.02;52016.00;5072142;28;20361;-81
2022/10/28 11:03:17;;;;;;;;;;;;;;;-144.99;40.34;52030.28;5067391;28;19995;-80
2022/10/28 11:05:49;;;;;;;;;;;;;;;-144.99;40.32;52020.09;5069562;28;19935;-81
2022/10/28 11:08:25;;;;;;;;;;;;;;;-144.99;40.75;52024.16;5067226;28;19946;-81
2022/10/28 11:11:03;;;;;;;;;;;;;;;-144.99;40.17;52036.38;5071736;28;20106;-78
2022/10/28 11:13:30;;;;;;;;;;;;;;;-144.99;40.00;51987.47;5070830;28;20056;-82
2022/10/28 11:16:00;;;;;;;;;;;;;;;-144.99;40.09;52071.03;5062575;28;20058;-82
2022/10/28 11:18:28;;;;;;;;;;;;;;;-144.99;40.65;52081.22;5057511;28;19925;-81
2022/10/28 11:21:00;;;;;;;;;;;;;;;-144.99;41.44;52115.88;5053696;28;20053;-82
2022/10/28 11:23:33;;;;;;;;;;;;;;;-144.99;41.64;52107.72;5070119;28;20065;-81
2022/10/28 11:26:01;;;;;;;;;;;;;;;-144.99;41.44;52064.91;5071235;28;19925;-84
2022/10/28 11:28:35;;;;;;;;;;;;;;;-144.99;40.98;52109.75;5070683;28;20009;-81
2022/10/28 11:31:09;;;;;;;;;;;;;;;-144.99;41.18;52105.69;5071260;28;19955;-82
2022/10/28 11:33:40;;;;;;;;;;;;;;;-144.99;40.88;52052.69;5069010;28;19976;-81
2022/10/28 11:36:11;;;;;;;;;;;;;;;-144.99;40.05;52060.84;5059095;28;19959;-82
2022/10/28 11:38:50;;;;;;;;;;;;;;;-144.99;39.92;51995.63;5068465;28;20307;-82
2022/10/28 11:41:22;;;;;;;;;;;;;;;-144.99;39.82;52056.78;5070886;28;19936;-81
2022/10/28 11:43:50;;;;;;;;;;;;;;;-144.99;39.85;52077.16;5069585;28;19962;-81
2022/10/28 11:46:20;;;;;;;;;;;;;;;-144.99;40.48;52130.13;5063071;28;19943;-82
2022/10/28 11:48:55;;;;;;;;;;;;;;;-144.99;41.36;52191.28;5062074;28;19929;-82
2022/10/28 11:51:30;;;;;;;;;;;;;;;-144.99;42.42;52146.44;5070586;28;20015;-78
2022/10/28 11:54:06;;;;;;;;;;;;;;;-144.99;42.81;52166.81;5068632;28;20435;-80
2022/10/28 11:56:36;;;;;;;;;;;;;;;-144.99;42.60;52105.69;5063550;28;19955;-81
2022/10/28 11:59:18;;;;;;;;;;;;;;;-144.99;41.73;52093.44;5058428;28;20375;-80
2022/10/28 12:01:52;;;;;;;;;;;;;;;-144.99;41.20;52073.06;5069688;28;20009;-81
2022/10/28 12:04:31;;;;;;;;;;;;;;;-144.99;40.33;51987.47;5085331;28;20031;-78
2022/10/28 12:07:05;;;;;;;;;;;;;;;-144.99;39.67;51989.50;5076045;28;19964;-79
2022/10/28 12:09:38;;;;;;;;;;;;;;;-144.99;38.72;51967.09;5058946;28;20302;-81
2022/10/28 12:12:11;;;;;;;;;;;;;;;-144.99;37.69;51946.72;5082282;28;20018;-84
2022/10/28 12:14:43;;;;;;;;;;;;;;;-144.99;37.21;51934.50;5071764;28;19955;-84
2022/10/28 12:17:13;;;;;;;;;;;;;;;-144.99;37.34;52016.00;5068497;28;20380;-81
2022/10/28 12:19:43;;;;;;;;;;;;;;;-144.99;37.38;52032.31;5068920;28;19928;-79
2022/10/28 12:22:12;;;;;;;;;;;;;;;-144.99;38.48;52085.31;5070323;28;19992;-80
2022/10/28 12:24:42;;;;;;;;;;;;;;;-144.99;39.66;52081.22;5070726;28;19928;-78
2022/10/28 12:27:12;;;;;;;;;;;;;;;-144.99;40.41;52130.13;5063430;28;20367;-80